sensor_id;sensor_type;location;lat;lon;timestamp;P1;durP1;ratioP1;P2;durP2;ratioP2
76729;SDS011;65653;53.106;18.046;2023-02-28T00:00:36;52.10;;;18.90;;
76729;SDS011;65653;53.106;18.046;2023-02-28T00:03:15;60.90;;;18.60;;
76729;SDS011;65653;53.106;18.046;2023-02-28T00:05:42;58.80;;;18.00;;
76729;SDS011;65653;53.106;18.046;2023-02-28T00:08:09;56.90;;;18.30;;
76729;SDS011;65653;53.106;18.046;2023-02-28T00:10:36;58.00;;;19.60;;
76729;SDS011;65653;53.106;18.046;2023-02-28T00:13:04;64.90;;;19.70;;
76729;SDS011;65653;53.106;18.046;2023-02-28T00:15:32;74.60;;;24.20;;
76729;SDS011;65653;53.106;18.046;2023-02-28T00:17:59;80.10;;;23.30;;
76729;SDS011;65653;53.106;18.046;2023-02-28T00:20:26;83.30;;;25.00;;
76729;SDS011;65653;53.106;18.046;2023-02-28T00:22:53;60.60;;;20.50;;
76729;SDS011;65653;53.106;18.046;2023-02-28T00:25:21;64.80;;;21.40;;
76729;SDS011;65653;53.106;18.046;2023-02-28T00:27:50;66.10;;;23.60;;
76729;SDS011;65653;53.106;18.046;2023-02-28T00:30:18;64.20;;;19.80;;
76729;SDS011;65653;53.106;18.046;2023-02-28T00:32:46;64.10;;;20.90;;
76729;SDS011;65653;53.106;18.046;2023-02-28T00:35:13;63.30;;;21.70;;
76729;SDS011;65653;53.106;18.046;2023-02-28T00:37:40;64.70;;;22.00;;
76729;SDS011;65653;53.106;18.046;2023-02-28T00:40:07;52.90;;;19.30;;
76729;SDS011;65653;53.106;18.046;2023-02-28T00:42:35;64.10;;;20.70;;
76729;SDS011;65653;53.106;18.046;2023-02-28T00:45:02;62.20;;;20.80;;
76729;SDS011;65653;53.106;18.046;2023-02-28T00:47:32;69.80;;;24.00;;
76729;SDS011;65653;53.106;18.046;2023-02-28T00:50:00;72.80;;;24.30;;
76729;SDS011;65653;53.106;18.046;2023-02-28T00:52:27;70.70;;;24.20;;
76729;SDS011;65653;53.106;18.046;2023-02-28T00:54:54;84.30;;;28.40;;
76729;SDS011;65653;53.106;18.046;2023-02-28T00:57:21;76.10;;;27.40;;
76729;SDS011;65653;53.106;18.046;2023-02-28T00:59:48;62.50;;;21.40;;
76729;SDS011;65653;53.106;18.046;2023-02-28T01:02:15;61.80;;;20.90;;
76729;SDS011;65653;53.106;18.046;2023-02-28T01:04:42;61.80;;;22.40;;
76729;SDS011;65653;53.106;18.046;2023-02-28T01:07:08;65.70;;;21.20;;
76729;SDS011;65653;53.106;18.046;2023-02-28T01:09:35;66.10;;;23.50;;
76729;SDS011;65653;53.106;18.046;2023-02-28T01:12:01;68.20;;;24.00;;
76729;SDS011;65653;53.106;18.046;2023-02-28T01:14:27;80.00;;;26.60;;
76729;SDS011;65653;53.106;18.046;2023-02-28T01:16:54;72.60;;;28.20;;
76729;SDS011;65653;53.106;18.046;2023-02-28T01:19:20;71.10;;;26.80;;
76729;SDS011;65653;53.106;18.046;2023-02-28T01:21:47;73.20;;;24.90;;
76729;SDS011;65653;53.106;18.046;2023-02-28T01:24:13;66.90;;;23.90;;
76729;SDS011;65653;53.106;18.046;2023-02-28T01:26:40;62.70;;;24.10;;
76729;SDS011;65653;53.106;18.046;2023-02-28T01:29:06;79.00;;;25.10;;
76729;SDS011;65653;53.106;18.046;2023-02-28T01:31:33;92.00;;;29.00;;
76729;SDS011;65653;53.106;18.046;2023-02-28T01:34:00;74.80;;;28.50;;
76729;SDS011;65653;53.106;18.046;2023-02-28T01:36:26;83.10;;;29.20;;
76729;SDS011;65653;53.106;18.046;2023-02-28T01:38:53;81.50;;;31.40;;
76729;SDS011;65653;53.106;18.046;2023-02-28T01:41:24;78.90;;;29.20;;
76729;SDS011;65653;53.106;18.046;2023-02-28T01:46:19;72.00;;;24.90;;
76729;SDS011;65653;53.106;18.046;2023-02-28T01:48:48;73.40;;;26.00;;
76729;SDS011;65653;53.106;18.046;2023-02-28T01:51:20;63.10;;;23.70;;
76729;SDS011;65653;53.106;18.046;2023-02-28T01:53:50;66.60;;;25.10;;
76729;SDS011;65653;53.106;18.046;2023-02-28T01:56:20;78.50;;;26.30;;
76729;SDS011;65653;53.106;18.046;2023-02-28T01:58:53;83.30;;;32.50;;
76729;SDS011;65653;53.106;18.046;2023-02-28T02:01:20;93.80;;;32.50;;
76729;SDS011;65653;53.106;18.046;2023-02-28T02:03:49;87.80;;;32.70;;
76729;SDS011;65653;53.106;18.046;2023-02-28T02:06:25;72.50;;;25.40;;
76729;SDS011;65653;53.106;18.046;2023-02-28T02:08:59;61.80;;;25.70;;
76729;SDS011;65653;53.106;18.046;2023-02-28T02:11:26;63.80;;;24.30;;
76729;SDS011;65653;53.106;18.046;2023-02-28T02:14:11;85.40;;;28.70;;
76729;SDS011;65653;53.106;18.046;2023-02-28T02:31:04;75.90;;;25.00;;
76729;SDS011;65653;53.106;18.046;2023-02-28T02:36:48;74.80;;;27.00;;
76729;SDS011;65653;53.106;18.046;2023-02-28T02:39:24;72.30;;;27.20;;
76729;SDS011;65653;53.106;18.046;2023-02-28T02:42:03;85.50;;;29.00;;
76729;SDS011;65653;53.106;18.046;2023-02-28T02:44:40;95.30;;;32.10;;
76729;SDS011;65653;53.106;18.046;2023-02-28T02:47:17;99.60;;;32.60;;
76729;SDS011;65653;53.106;18.046;2023-02-28T02:49:52;77.10;;;29.00;;
76729;SDS011;65653;53.106;18.046;2023-02-28T02:52:23;82.00;;;26.70;;
76729;SDS011;65653;53.106;18.046;2023-02-28T02:54:56;67.60;;;24.60;;
76729;SDS011;65653;53.106;18.046;2023-02-28T02:57:25;78.10;;;26.50;;
76729;SDS011;65653;53.106;18.046;2023-02-28T02:59:59;65.80;;;25.10;;
76729;SDS011;65653;53.106;18.046;2023-02-28T03:02:28;60.30;;;22.90;;
76729;SDS011;65653;53.106;18.046;2023-02-28T03:05:01;84.80;;;26.20;;
76729;SDS011;65653;53.106;18.046;2023-02-28T03:07:32;94.30;;;31.40;;
76729;SDS011;65653;53.106;18.046;2023-02-28T03:09:59;91.00;;;31.80;;
76729;SDS011;65653;53.106;18.046;2023-02-28T03:12:48;88.70;;;31.00;;
76729;SDS011;65653;53.106;18.046;2023-02-28T03:15:24;96.60;;;31.60;;
76729;SDS011;65653;53.106;18.046;2023-02-28T03:18:04;71.00;;;27.70;;
76729;SDS011;65653;53.106;18.046;2023-02-28T03:20:42;75.00;;;24.80;;
76729;SDS011;65653;53.106;18.046;2023-02-28T03:23:38;71.10;;;25.90;;
76729;SDS011;65653;53.106;18.046;2023-02-28T03:26:13;62.40;;;22.80;;
76729;SDS011;65653;53.106;18.046;2023-02-28T03:33:59;79.10;;;27.50;;
76729;SDS011;65653;53.106;18.046;2023-02-28T03:36:31;70.60;;;25.30;;
76729;SDS011;65653;53.106;18.046;2023-02-28T03:39:12;77.40;;;24.50;;
76729;SDS011;65653;53.106;18.046;2023-02-28T03:41:45;70.60;;;23.00;;
76729;SDS011;65653;53.106;18.046;2023-02-28T03:44:18;60.80;;;22.50;;
76729;SDS011;65653;53.106;18.046;2023-02-28T03:46:51;63.40;;;21.40;;
76729;SDS011;65653;53.106;18.046;2023-02-28T03:49:30;60.10;;;21.70;;
76729;SDS011;65653;53.106;18.046;2023-02-28T03:52:01;58.80;;;20.80;;
76729;SDS011;65653;53.106;18.046;2023-02-28T03:54:31;59.20;;;20.20;;
76729;SDS011;65653;53.106;18.046;2023-02-28T03:59:47;76.20;;;26.90;;
76729;SDS011;65653;53.106;18.046;2023-02-28T04:02:23;71.80;;;27.80;;
76729;SDS011;65653;53.106;18.046;2023-02-28T04:04:49;74.60;;;24.70;;
76729;SDS011;65653;53.106;18.046;2023-02-28T04:07:17;72.10;;;22.30;;
76729;SDS011;65653;53.106;18.046;2023-02-28T04:09:44;66.10;;;22.60;;
76729;SDS011;65653;53.106;18.046;2023-02-28T04:12:10;59.60;;;21.00;;
76729;SDS011;65653;53.106;18.046;2023-02-28T04:14:37;58.60;;;21.50;;
76729;SDS011;65653;53.106;18.046;2023-02-28T04:17:03;45.50;;;17.70;;
76729;SDS011;65653;53.106;18.046;2023-02-28T04:19:30;40.50;;;17.20;;
76729;SDS011;65653;53.106;18.046;2023-02-28T04:21:56;41.10;;;15.20;;
76729;SDS011;65653;53.106;18.046;2023-02-28T04:24:24;63.70;;;20.50;;
76729;SDS011;65653;53.106;18.046;2023-02-28T04:26:52;81.50;;;27.90;;
76729;SDS011;65653;53.106;18.046;2023-02-28T04:29:21;85.20;;;27.80;;
76729;SDS011;65653;53.106;18.046;2023-02-28T04:31:53;83.20;;;33.00;;
76729;SDS011;65653;53.106;18.046;2023-02-28T04:34:20;81.00;;;30.50;;
76729;SDS011;65653;53.106;18.046;2023-02-28T04:36:47;70.50;;;28.30;;
76729;SDS011;65653;53.106;18.046;2023-02-28T04:39:23;61.50;;;22.00;;
76729;SDS011;65653;53.106;18.046;2023-02-28T04:44:17;37.90;;;13.90;;
76729;SDS011;65653;53.106;18.046;2023-02-28T04:46:43;75.10;;;21.60;;
76729;SDS011;65653;53.106;18.046;2023-02-28T04:49:11;72.70;;;24.40;;
76729;SDS011;65653;53.106;18.046;2023-02-28T04:51:38;77.00;;;29.10;;
76729;SDS011;65653;53.106;18.046;2023-02-28T04:54:05;71.00;;;30.10;;
76729;SDS011;65653;53.106;18.046;2023-02-28T04:56:32;59.20;;;23.50;;
76729;SDS011;65653;53.106;18.046;2023-02-28T04:58:58;50.80;;;19.90;;
76729;SDS011;65653;53.106;18.046;2023-02-28T05:01:26;48.90;;;17.30;;
76729;SDS011;65653;53.106;18.046;2023-02-28T05:03:56;48.40;;;17.60;;
76729;SDS011;65653;53.106;18.046;2023-02-28T05:06:26;51.30;;;17.60;;
76729;SDS011;65653;53.106;18.046;2023-02-28T05:08:54;62.10;;;22.40;;
76729;SDS011;65653;53.106;18.046;2023-02-28T05:11:23;74.20;;;24.70;;
76729;SDS011;65653;53.106;18.046;2023-02-28T05:13:52;69.20;;;28.00;;
76729;SDS011;65653;53.106;18.046;2023-02-28T05:16:20;51.80;;;20.50;;
76729;SDS011;65653;53.106;18.046;2023-02-28T05:18:47;53.00;;;18.60;;
76729;SDS011;65653;53.106;18.046;2023-02-28T05:21:33;56.10;;;19.30;;
76729;SDS011;65653;53.106;18.046;2023-02-28T05:24:02;55.90;;;19.50;;
76729;SDS011;65653;53.106;18.046;2023-02-28T05:26:40;56.90;;;20.70;;
76729;SDS011;65653;53.106;18.046;2023-02-28T05:29:08;76.40;;;23.40;;
76729;SDS011;65653;53.106;18.046;2023-02-28T05:31:35;75.00;;;23.40;;
76729;SDS011;65653;53.106;18.046;2023-02-28T05:34:02;69.40;;;25.70;;
76729;SDS011;65653;53.106;18.046;2023-02-28T05:36:30;65.70;;;24.80;;
76729;SDS011;65653;53.106;18.046;2023-02-28T05:38:56;60.50;;;21.60;;
76729;SDS011;65653;53.106;18.046;2023-02-28T05:41:23;52.60;;;20.30;;
76729;SDS011;65653;53.106;18.046;2023-02-28T05:43:49;56.50;;;19.30;;
76729;SDS011;65653;53.106;18.046;2023-02-28T05:46:16;53.30;;;18.40;;
76729;SDS011;65653;53.106;18.046;2023-02-28T05:48:45;58.20;;;17.90;;
76729;SDS011;65653;53.106;18.046;2023-02-28T05:51:13;80.10;;;24.10;;
76729;SDS011;65653;53.106;18.046;2023-02-28T05:53:40;79.10;;;28.50;;
76729;SDS011;65653;53.106;18.046;2023-02-28T05:56:06;71.00;;;24.80;;
76729;SDS011;65653;53.106;18.046;2023-02-28T05:58:32;59.10;;;20.80;;
76729;SDS011;65653;53.106;18.046;2023-02-28T06:01:00;60.90;;;20.80;;
76729;SDS011;65653;53.106;18.046;2023-02-28T06:03:44;64.30;;;20.60;;
76729;SDS011;65653;53.106;18.046;2023-02-28T06:06:11;62.70;;;22.30;;
76729;SDS011;65653;53.106;18.046;2023-02-28T06:08:37;54.80;;;20.40;;
76729;SDS011;65653;53.106;18.046;2023-02-28T06:11:04;61.00;;;21.60;;
76729;SDS011;65653;53.106;18.046;2023-02-28T06:13:30;62.50;;;20.40;;
76729;SDS011;65653;53.106;18.046;2023-02-28T06:16:00;73.30;;;25.50;;
76729;SDS011;65653;53.106;18.046;2023-02-28T06:18:27;78.10;;;29.50;;
76729;SDS011;65653;53.106;18.046;2023-02-28T06:20:53;97.60;;;35.80;;
76729;SDS011;65653;53.106;18.046;2023-02-28T06:23:21;73.40;;;28.00;;
76729;SDS011;65653;53.106;18.046;2023-02-28T06:25:48;118.80;;;39.70;;
76729;SDS011;65653;53.106;18.046;2023-02-28T06:28:15;70.00;;;26.70;;
76729;SDS011;65653;53.106;18.046;2023-02-28T06:30:42;54.50;;;20.30;;
76729;SDS011;65653;53.106;18.046;2023-02-28T06:33:08;52.40;;;19.40;;
76729;SDS011;65653;53.106;18.046;2023-02-28T06:35:35;54.90;;;19.80;;
76729;SDS011;65653;53.106;18.046;2023-02-28T06:38:01;55.20;;;20.30;;
76729;SDS011;65653;53.106;18.046;2023-02-28T06:40:28;61.30;;;22.30;;
76729;SDS011;65653;53.106;18.046;2023-02-28T06:42:54;58.60;;;22.00;;
76729;SDS011;65653;53.106;18.046;2023-02-28T06:45:20;69.30;;;23.60;;
76729;SDS011;65653;53.106;18.046;2023-02-28T06:47:47;66.10;;;22.30;;
76729;SDS011;65653;53.106;18.046;2023-02-28T06:52:45;45.20;;;17.60;;
76729;SDS011;65653;53.106;18.046;2023-02-28T06:55:12;52.10;;;18.20;;
76729;SDS011;65653;53.106;18.046;2023-02-28T06:57:39;55.40;;;19.90;;
76729;SDS011;65653;53.106;18.046;2023-02-28T07:00:09;59.50;;;19.20;;
76729;SDS011;65653;53.106;18.046;2023-02-28T07:02:36;55.80;;;19.70;;
76729;SDS011;65653;53.106;18.046;2023-02-28T07:05:05;48.80;;;18.20;;
76729;SDS011;65653;53.106;18.046;2023-02-28T07:07:32;57.30;;;21.90;;
76729;SDS011;65653;53.106;18.046;2023-02-28T07:09:59;62.70;;;21.40;;
76729;SDS011;65653;53.106;18.046;2023-02-28T07:12:25;40.40;;;17.60;;
76729;SDS011;65653;53.106;18.046;2023-02-28T07:14:52;37.40;;;14.90;;
76729;SDS011;65653;53.106;18.046;2023-02-28T07:17:18;44.30;;;17.30;;
76729;SDS011;65653;53.106;18.046;2023-02-28T07:19:45;41.60;;;17.30;;
76729;SDS011;65653;53.106;18.046;2023-02-28T07:22:11;24.30;;;9.80;;
76729;SDS011;65653;53.106;18.046;2023-02-28T07:24:38;52.20;;;17.90;;
76729;SDS011;65653;53.106;18.046;2023-02-28T07:27:05;36.30;;;13.50;;
76729;SDS011;65653;53.106;18.046;2023-02-28T07:29:31;39.70;;;16.40;;
76729;SDS011;65653;53.106;18.046;2023-02-28T07:31:58;34.00;;;15.40;;
76729;SDS011;65653;53.106;18.046;2023-02-28T07:34:24;24.00;;;10.20;;
76729;SDS011;65653;53.106;18.046;2023-02-28T07:36:52;46.40;;;19.00;;
76729;SDS011;65653;53.106;18.046;2023-02-28T07:39:20;49.80;;;20.10;;
76729;SDS011;65653;53.106;18.046;2023-02-28T07:41:48;57.20;;;19.70;;
76729;SDS011;65653;53.106;18.046;2023-02-28T07:44:14;37.30;;;17.60;;
76729;SDS011;65653;53.106;18.046;2023-02-28T07:46:41;15.70;;;6.70;;
76729;SDS011;65653;53.106;18.046;2023-02-28T07:49:08;32.10;;;15.60;;
76729;SDS011;65653;53.106;18.046;2023-02-28T07:51:34;34.70;;;15.10;;
76729;SDS011;65653;53.106;18.046;2023-02-28T07:54:01;39.40;;;18.80;;
76729;SDS011;65653;53.106;18.046;2023-02-28T07:56:28;47.20;;;21.90;;
76729;SDS011;65653;53.106;18.046;2023-02-28T07:58:54;41.00;;;18.60;;
76729;SDS011;65653;53.106;18.046;2023-02-28T08:01:21;40.20;;;19.40;;
76729;SDS011;65653;53.106;18.046;2023-02-28T08:03:48;42.70;;;18.30;;
76729;SDS011;65653;53.106;18.046;2023-02-28T08:06:15;35.40;;;15.70;;
76729;SDS011;65653;53.106;18.046;2023-02-28T08:08:43;35.40;;;14.70;;
76729;SDS011;65653;53.106;18.046;2023-02-28T08:11:10;34.30;;;16.40;;
76729;SDS011;65653;53.106;18.046;2023-02-28T08:13:37;37.10;;;15.50;;
76729;SDS011;65653;53.106;18.046;2023-02-28T08:16:03;43.00;;;16.30;;
76729;SDS011;65653;53.106;18.046;2023-02-28T08:18:30;31.60;;;14.10;;
76729;SDS011;65653;53.106;18.046;2023-02-28T08:20:58;19.90;;;9.30;;
76729;SDS011;65653;53.106;18.046;2023-02-28T08:23:25;23.70;;;10.90;;
76729;SDS011;65653;53.106;18.046;2023-02-28T08:25:54;26.10;;;12.20;;
76729;SDS011;65653;53.106;18.046;2023-02-28T08:28:22;20.20;;;9.50;;
76729;SDS011;65653;53.106;18.046;2023-02-28T08:30:49;21.10;;;11.60;;
76729;SDS011;65653;53.106;18.046;2023-02-28T08:33:16;26.30;;;10.70;;
76729;SDS011;65653;53.106;18.046;2023-02-28T08:35:42;20.70;;;10.10;;
76729;SDS011;65653;53.106;18.046;2023-02-28T08:38:08;18.50;;;9.10;;
76729;SDS011;65653;53.106;18.046;2023-02-28T08:40:35;23.20;;;10.30;;
76729;SDS011;65653;53.106;18.046;2023-02-28T08:43:01;18.10;;;9.90;;
76729;SDS011;65653;53.106;18.046;2023-02-28T08:45:28;15.80;;;7.20;;
76729;SDS011;65653;53.106;18.046;2023-02-28T08:47:55;22.20;;;10.60;;
76729;SDS011;65653;53.106;18.046;2023-02-28T08:50:22;15.00;;;7.00;;
76729;SDS011;65653;53.106;18.046;2023-02-28T08:52:49;18.00;;;9.30;;
76729;SDS011;65653;53.106;18.046;2023-02-28T08:55:15;19.40;;;9.30;;
76729;SDS011;65653;53.106;18.046;2023-02-28T08:57:42;18.20;;;8.30;;
76729;SDS011;65653;53.106;18.046;2023-02-28T09:00:09;12.10;;;6.40;;
76729;SDS011;65653;53.106;18.046;2023-02-28T09:02:39;17.40;;;9.60;;
76729;SDS011;65653;53.106;18.046;2023-02-28T09:05:07;16.10;;;8.80;;
76729;SDS011;65653;53.106;18.046;2023-02-28T09:07:35;15.10;;;7.70;;
76729;SDS011;65653;53.106;18.046;2023-02-28T09:10:02;16.30;;;9.30;;
76729;SDS011;65653;53.106;18.046;2023-02-28T09:12:28;15.60;;;8.70;;
76729;SDS011;65653;53.106;18.046;2023-02-28T09:15:00;17.50;;;8.30;;
76729;SDS011;65653;53.106;18.046;2023-02-28T09:17:28;14.40;;;7.70;;
76729;SDS011;65653;53.106;18.046;2023-02-28T09:19:55;12.70;;;7.10;;
76729;SDS011;65653;53.106;18.046;2023-02-28T09:22:21;13.00;;;7.00;;
76729;SDS011;65653;53.106;18.046;2023-02-28T09:24:48;14.00;;;7.50;;
76729;SDS011;65653;53.106;18.046;2023-02-28T09:27:14;11.00;;;5.60;;
76729;SDS011;65653;53.106;18.046;2023-02-28T09:29:41;12.10;;;6.00;;
76729;SDS011;65653;53.106;18.046;2023-02-28T09:32:07;7.50;;;4.20;;
76729;SDS011;65653;53.106;18.046;2023-02-28T09:34:34;9.70;;;5.20;;
76729;SDS011;65653;53.106;18.046;2023-02-28T09:37:02;12.10;;;5.40;;
76729;SDS011;65653;53.106;18.046;2023-02-28T09:39:29;8.30;;;4.20;;
76729;SDS011;65653;53.106;18.046;2023-02-28T09:41:55;6.70;;;3.20;;
76729;SDS011;65653;53.106;18.046;2023-02-28T09:44:33;6.70;;;3.20;;
76729;SDS011;65653;53.106;18.046;2023-02-28T09:49:45;6.50;;;3.00;;
76729;SDS011;65653;53.106;18.046;2023-02-28T09:52:14;7.30;;;3.50;;
76729;SDS011;65653;53.106;18.046;2023-02-28T09:54:45;4.10;;;2.40;;
76729;SDS011;65653;53.106;18.046;2023-02-28T09:57:32;5.50;;;2.40;;
76729;SDS011;65653;53.106;18.046;2023-02-28T10:00:07;5.60;;;2.90;;
76729;SDS011;65653;53.106;18.046;2023-02-28T10:06:08;6.00;;;3.00;;
76729;SDS011;65653;53.106;18.046;2023-02-28T10:09:02;7.20;;;3.00;;
76729;SDS011;65653;53.106;18.046;2023-02-28T10:11:36;9.70;;;3.60;;
76729;SDS011;65653;53.106;18.046;2023-02-28T10:14:07;11.00;;;4.30;;
76729;SDS011;65653;53.106;18.046;2023-02-28T10:21:59;13.30;;;4.60;;
76729;SDS011;65653;53.106;18.046;2023-02-28T10:27:15;10.00;;;4.10;;
76729;SDS011;65653;53.106;18.046;2023-02-28T10:32:14;10.30;;;4.80;;
76729;SDS011;65653;53.106;18.046;2023-02-28T10:34:44;9.40;;;4.90;;
76729;SDS011;65653;53.106;18.046;2023-02-28T10:37:11;8.10;;;3.70;;
76729;SDS011;65653;53.106;18.046;2023-02-28T10:39:40;6.50;;;3.60;;
76729;SDS011;65653;53.106;18.046;2023-02-28T10:42:19;8.50;;;3.10;;
76729;SDS011;65653;53.106;18.046;2023-02-28T10:45:13;9.00;;;3.90;;
76729;SDS011;65653;53.106;18.046;2023-02-28T10:47:49;9.10;;;3.70;;
76729;SDS011;65653;53.106;18.046;2023-02-28T10:58:57;8.90;;;3.80;;
76729;SDS011;65653;53.106;18.046;2023-02-28T11:03:58;9.80;;;4.70;;
76729;SDS011;65653;53.106;18.046;2023-02-28T11:06:32;5.70;;;2.90;;
76729;SDS011;65653;53.106;18.046;2023-02-28T11:09:02;9.30;;;4.90;;
76729;SDS011;65653;53.106;18.046;2023-02-28T11:11:41;8.60;;;3.90;;
76729;SDS011;65653;53.106;18.046;2023-02-28T11:14:18;8.80;;;4.50;;
76729;SDS011;65653;53.106;18.046;2023-02-28T11:16:48;10.00;;;5.40;;
76729;SDS011;65653;53.106;18.046;2023-02-28T11:19:26;13.00;;;4.50;;
76729;SDS011;65653;53.106;18.046;2023-02-28T11:21:59;4.60;;;3.20;;
76729;SDS011;65653;53.106;18.046;2023-02-28T11:24:28;7.60;;;4.00;;
76729;SDS011;65653;53.106;18.046;2023-02-28T11:26:58;8.80;;;4.50;;
76729;SDS011;65653;53.106;18.046;2023-02-28T11:29:25;10.60;;;4.70;;
76729;SDS011;65653;53.106;18.046;2023-02-28T11:36:56;9.20;;;4.80;;
76729;SDS011;65653;53.106;18.046;2023-02-28T11:39:24;9.10;;;4.70;;
76729;SDS011;65653;53.106;18.046;2023-02-28T11:47:08;8.70;;;4.90;;
76729;SDS011;65653;53.106;18.046;2023-02-28T12:11:51;11.30;;;5.80;;
76729;SDS011;65653;53.106;18.046;2023-02-28T12:19:48;9.10;;;5.50;;
76729;SDS011;65653;53.106;18.046;2023-02-28T12:22:38;9.00;;;5.50;;
76729;SDS011;65653;53.106;18.046;2023-02-28T12:28:10;7.20;;;4.50;;
76729;SDS011;65653;53.106;18.046;2023-02-28T12:30:42;7.80;;;4.90;;
76729;SDS011;65653;53.106;18.046;2023-02-28T12:33:20;7.60;;;5.50;;
76729;SDS011;65653;53.106;18.046;2023-02-28T12:35:57;5.90;;;4.20;;
76729;SDS011;65653;53.106;18.046;2023-02-28T12:38:27;7.00;;;5.40;;
76729;SDS011;65653;53.106;18.046;2023-02-28T12:41:15;9.30;;;5.10;;
76729;SDS011;65653;53.106;18.046;2023-02-28T12:43:48;8.80;;;5.00;;
76729;SDS011;65653;53.106;18.046;2023-02-28T12:46:27;5.40;;;3.70;;
76729;SDS011;65653;53.106;18.046;2023-02-28T12:49:00;9.60;;;4.80;;
76729;SDS011;65653;53.106;18.046;2023-02-28T12:51:31;8.50;;;4.50;;
76729;SDS011;65653;53.106;18.046;2023-02-28T12:56:57;5.90;;;3.90;;
76729;SDS011;65653;53.106;18.046;2023-02-28T13:02:21;4.90;;;3.90;;
76729;SDS011;65653;53.106;18.046;2023-02-28T13:04:57;6.00;;;3.30;;
76729;SDS011;65653;53.106;18.046;2023-02-28T13:10:21;6.40;;;4.20;;
76729;SDS011;65653;53.106;18.046;2023-02-28T13:12:49;5.10;;;3.80;;
76729;SDS011;65653;53.106;18.046;2023-02-28T13:15:18;6.70;;;3.60;;
76729;SDS011;65653;53.106;18.046;2023-02-28T13:17:51;7.90;;;3.60;;
76729;SDS011;65653;53.106;18.046;2023-02-28T13:22:48;6.60;;;3.60;;
76729;SDS011;65653;53.106;18.046;2023-02-28T13:27:52;7.30;;;5.10;;
76729;SDS011;65653;53.106;18.046;2023-02-28T13:38:37;6.50;;;4.30;;
76729;SDS011;65653;53.106;18.046;2023-02-28T13:46:29;4.60;;;3.30;;
76729;SDS011;65653;53.106;18.046;2023-02-28T13:51:47;8.80;;;3.50;;
76729;SDS011;65653;53.106;18.046;2023-02-28T13:54:27;6.70;;;3.60;;
76729;SDS011;65653;53.106;18.046;2023-02-28T14:05:37;6.00;;;4.00;;
76729;SDS011;65653;53.106;18.046;2023-02-28T14:16:13;4.90;;;3.90;;
76729;SDS011;65653;53.106;18.046;2023-02-28T14:18:49;6.80;;;3.50;;
76729;SDS011;65653;53.106;18.046;2023-02-28T14:21:28;5.10;;;3.30;;
76729;SDS011;65653;53.106;18.046;2023-02-28T14:24:16;5.80;;;3.60;;
76729;SDS011;65653;53.106;18.046;2023-02-28T14:37:23;9.00;;;4.00;;
76729;SDS011;65653;53.106;18.046;2023-02-28T14:39:54;7.20;;;3.40;;
76729;SDS011;65653;53.106;18.046;2023-02-28T14:42:29;4.90;;;3.10;;
76729;SDS011;65653;53.106;18.046;2023-02-28T14:45:02;5.30;;;3.20;;
76729;SDS011;65653;53.106;18.046;2023-02-28T14:47:33;4.50;;;3.60;;
76729;SDS011;65653;53.106;18.046;2023-02-28T14:50:02;6.20;;;3.90;;
76729;SDS011;65653;53.106;18.046;2023-02-28T14:52:31;5.10;;;3.30;;
76729;SDS011;65653;53.106;18.046;2023-02-28T14:55:00;4.50;;;3.00;;
76729;SDS011;65653;53.106;18.046;2023-02-28T14:57:53;4.90;;;3.60;;
76729;SDS011;65653;53.106;18.046;2023-02-28T15:00:28;8.60;;;3.50;;
76729;SDS011;65653;53.106;18.046;2023-02-28T15:02:58;4.20;;;3.20;;
76729;SDS011;65653;53.106;18.046;2023-02-28T15:05:28;7.10;;;2.90;;
76729;SDS011;65653;53.106;18.046;2023-02-28T15:08:21;7.40;;;3.50;;
76729;SDS011;65653;53.106;18.046;2023-02-28T15:11:04;7.80;;;3.70;;
76729;SDS011;65653;53.106;18.046;2023-02-28T15:13:38;10.00;;;4.20;;
76729;SDS011;65653;53.106;18.046;2023-02-28T15:16:10;7.80;;;3.50;;
76729;SDS011;65653;53.106;18.046;2023-02-28T15:18:54;6.20;;;3.60;;
76729;SDS011;65653;53.106;18.046;2023-02-28T15:26:57;9.30;;;3.70;;
76729;SDS011;65653;53.106;18.046;2023-02-28T15:29:27;10.60;;;4.30;;
76729;SDS011;65653;53.106;18.046;2023-02-28T15:32:03;6.00;;;2.40;;
76729;SDS011;65653;53.106;18.046;2023-02-28T15:34:40;5.20;;;2.20;;
76729;SDS011;65653;53.106;18.046;2023-02-28T15:37:29;5.90;;;2.30;;
76729;SDS011;65653;53.106;18.046;2023-02-28T15:40:11;3.60;;;1.80;;
76729;SDS011;65653;53.106;18.046;2023-02-28T15:45:40;5.90;;;2.60;;
76729;SDS011;65653;53.106;18.046;2023-02-28T15:48:19;5.30;;;2.50;;
76729;SDS011;65653;53.106;18.046;2023-02-28T15:50:49;6.70;;;2.60;;
76729;SDS011;65653;53.106;18.046;2023-02-28T15:55:55;3.80;;;1.90;;
76729;SDS011;65653;53.106;18.046;2023-02-28T15:58:28;6.40;;;1.90;;
76729;SDS011;65653;53.106;18.046;2023-02-28T16:04:00;4.80;;;2.50;;
76729;SDS011;65653;53.106;18.046;2023-02-28T16:06:41;7.80;;;3.00;;
76729;SDS011;65653;53.106;18.046;2023-02-28T16:09:15;6.40;;;2.70;;
76729;SDS011;65653;53.106;18.046;2023-02-28T16:11:50;5.70;;;2.70;;
76729;SDS011;65653;53.106;18.046;2023-02-28T16:14:23;7.20;;;3.10;;
76729;SDS011;65653;53.106;18.046;2023-02-28T16:17:03;7.80;;;3.10;;
76729;SDS011;65653;53.106;18.046;2023-02-28T16:19:36;11.20;;;3.90;;
76729;SDS011;65653;53.106;18.046;2023-02-28T16:22:03;13.10;;;4.30;;
76729;SDS011;65653;53.106;18.046;2023-02-28T16:24:30;16.30;;;5.40;;
76729;SDS011;65653;53.106;18.046;2023-02-28T16:26:56;11.00;;;4.80;;
76729;SDS011;65653;53.106;18.046;2023-02-28T16:29:31;12.20;;;4.50;;
76729;SDS011;65653;53.106;18.046;2023-02-28T16:32:01;9.70;;;4.10;;
76729;SDS011;65653;53.106;18.046;2023-02-28T16:34:30;12.50;;;4.40;;
76729;SDS011;65653;53.106;18.046;2023-02-28T16:36:56;18.40;;;6.10;;
76729;SDS011;65653;53.106;18.046;2023-02-28T16:39:24;22.20;;;7.20;;
76729;SDS011;65653;53.106;18.046;2023-02-28T16:41:51;17.50;;;6.50;;
76729;SDS011;65653;53.106;18.046;2023-02-28T16:46:53;21.80;;;7.20;;
76729;SDS011;65653;53.106;18.046;2023-02-28T16:49:20;19.00;;;7.60;;
76729;SDS011;65653;53.106;18.046;2023-02-28T16:51:47;14.60;;;6.00;;
76729;SDS011;65653;53.106;18.046;2023-02-28T16:54:13;15.50;;;7.00;;
76729;SDS011;65653;53.106;18.046;2023-02-28T16:56:41;20.10;;;8.00;;
76729;SDS011;65653;53.106;18.046;2023-02-28T17:01:38;21.80;;;7.30;;
76729;SDS011;65653;53.106;18.046;2023-02-28T17:04:05;21.30;;;7.20;;
76729;SDS011;65653;53.106;18.046;2023-02-28T17:06:32;24.30;;;8.10;;
76729;SDS011;65653;53.106;18.046;2023-02-28T17:08:59;24.60;;;8.60;;
76729;SDS011;65653;53.106;18.046;2023-02-28T17:11:25;27.00;;;9.00;;
76729;SDS011;65653;53.106;18.046;2023-02-28T17:13:52;33.00;;;12.50;;
76729;SDS011;65653;53.106;18.046;2023-02-28T17:16:25;44.40;;;14.80;;
76729;SDS011;65653;53.106;18.046;2023-02-28T17:18:56;51.10;;;16.80;;
76729;SDS011;65653;53.106;18.046;2023-02-28T17:21:25;38.60;;;13.00;;
76729;SDS011;65653;53.106;18.046;2023-02-28T17:23:52;36.30;;;12.00;;
76729;SDS011;65653;53.106;18.046;2023-02-28T17:26:19;37.70;;;11.20;;
76729;SDS011;65653;53.106;18.046;2023-02-28T17:28:48;34.00;;;12.10;;
76729;SDS011;65653;53.106;18.046;2023-02-28T17:31:15;57.10;;;16.80;;
76729;SDS011;65653;53.106;18.046;2023-02-28T17:33:41;30.90;;;10.80;;